Time;durP1;ratioP1;P1;durP2;ratioP2;P2;SDS_P1;SDS_P2;PMS_P1;PMS_P2;Temp;Humidity;BMP_temperature;BMP_pressure;BME280_temperature;BME280_humidity;BME280_pressure;Samples;Min_cycle;Max_cycle;Signal;HPM_P1;HPM_P2
2021/10/09 00:01:25;;;;;;;;;;;19.10;62.60;;;;;;4999096;28;20554;-55
2021/10/09 00:03:51;;;;;;;;;;;19.10;62.50;;;;;;5003012;28;19922;-56
2021/10/09 00:06:16;;;;;;;;;;;19.10;62.60;;;;;;5012012;28;20383;-59
2021/10/09 00:08:42;;;;;;;;;;;19.10;62.50;;;;;;4986740;28;19930;-56
2021/10/09 00:11:14;;;;;;;;;;;19.00;62.50;;;;;;5016064;28;19918;-51
2021/10/09 00:13:40;;;;;;;;;;;19.10;62.60;;;;;;4994105;28;19932;-57
2021/10/09 00:16:05;;;;;;;;;;;19.10;62.50;;;;;;4983972;28;20537;-58
2021/10/09 00:18:31;;;;;;;;;;;19.10;62.50;;;;;;4995679;28;19963;-53
2021/10/09 00:20:56;;;;;;;;;;;19.00;62.50;;;;;;4997110;28;19926;-57
2021/10/09 00:23:21;;;;;;;;;;;19.10;62.50;;;;;;5001925;28;20028;-56
2021/10/09 00:25:47;;;;;;;;;;;19.00;62.40;;;;;;4997750;28;19924;-57
2021/10/09 00:28:12;;;;;;;;;;;19.10;62.40;;;;;;5001599;28;19917;-52
2021/10/09 00:30:38;;;;;;;;;;;19.10;62.50;;;;;;5019444;28;19972;-54
2021/10/09 00:33:04;;;;;;;;;;;19.00;62.40;;;;;;4999922;28;19917;-49
2021/10/09 00:35:29;;;;;;;;;;;19.00;62.30;;;;;;4994483;28;19926;-52
2021/10/09 00:37:54;;;;;;;;;;;19.10;62.40;;;;;;5000713;28;19929;-51
2021/10/09 00:40:20;;;;;;;;;;;19.10;62.30;;;;;;4996896;28;19917;-56
2021/10/09 00:42:45;;;;;;;;;;;19.00;62.30;;;;;;5020826;28;20599;-53
2021/10/09 00:45:11;;;;;;;;;;;19.10;62.40;;;;;;4985160;28;19917;-50
2021/10/09 00:47:36;;;;;;;;;;;19.00;62.30;;;;;;5007993;28;19929;-56
2021/10/09 00:50:02;;;;;;;;;;;19.00;62.30;;;;;;4991650;28;20207;-52
2021/10/09 00:52:28;;;;;;;;;;;19.00;62.30;;;;;;4981555;28;19925;-56
2021/10/09 00:54:53;;;;;;;;;;;19.00;62.30;;;;;;4992583;28;19927;-54
2021/10/09 00:57:19;;;;;;;;;;;19.00;62.30;;;;;;4983903;28;19981;-49
2021/10/09 00:59:44;;;;;;;;;;;19.00;62.30;;;;;;5010593;28;20400;-51
2021/10/09 01:02:10;;;;;;;;;;;19.00;62.30;;;;;;4987991;28;19921;-56
2021/10/09 01:04:35;;;;;;;;;;;19.00;62.30;;;;;;4987179;28;19925;-55
2021/10/09 01:07:01;;;;;;;;;;;19.00;62.20;;;;;;4982920;28;19928;-58
2021/10/09 01:09:26;;;;;;;;;;;19.00;62.20;;;;;;5008686;28;19921;-57
2021/10/09 01:11:52;;;;;;;;;;;19.00;62.20;;;;;;4985479;28;19941;-55
2021/10/09 01:14:17;;;;;;;;;;;19.00;62.20;;;;;;4988420;28;19986;-52
2021/10/09 01:16:43;;;;;;;;;;;19.00;62.10;;;;;;4989427;28;19921;-52
2021/10/09 01:19:08;;;;;;;;;;;19.00;62.80;;;;;;5004257;28;19918;-56
2021/10/09 01:21:40;;;;;;;;;;;19.00;62.20;;;;;;5000918;28;20024;-51
2021/10/09 01:24:06;;;;;;;;;;;19.00;62.20;;;;;;5004396;28;20334;-54
2021/10/09 01:26:31;;;;;;;;;;;19.00;62.20;;;;;;5002526;28;19934;-51
2021/10/09 01:28:57;;;;;;;;;;;19.00;62.20;;;;;;4999941;28;19921;-53
2021/10/09 01:31:22;;;;;;;;;;;19.00;62.10;;;;;;5000951;28;19952;-52
2021/10/09 01:33:48;;;;;;;;;;;19.00;62.10;;;;;;5004616;28;19925;-50
2021/10/09 01:36:13;;;;;;;;;;;19.00;62.10;;;;;;5001700;28;19944;-53
2021/10/09 01:38:39;;;;;;;;;;;19.00;62.00;;;;;;5002311;28;20423;-49
2021/10/09 01:41:04;;;;;;;;;;;19.00;62.00;;;;;;5006947;28;19918;-48
2021/10/09 01:43:30;;;;;;;;;;;19.00;62.00;;;;;;4976868;28;19949;-58
2021/10/09 01:45:55;;;;;;;;;;;19.00;62.10;;;;;;4995302;28;19939;-54
2021/10/09 01:48:28;;;;;;;;;;;19.00;62.00;;;;;;4991301;28;19926;-52
2021/10/09 01:50:53;;;;;;;;;;;19.00;62.00;;;;;;4990079;28;19929;-48
2021/10/09 01:53:18;;;;;;;;;;;19.00;61.90;;;;;;4988224;28;19917;-50
2021/10/09 01:55:44;;;;;;;;;;;19.00;61.90;;;;;;4993676;28;19921;-53
2021/10/09 01:58:09;;;;;;;;;;;19.00;61.90;;;;;;5004184;28;19924;-56
2021/10/09 02:00:35;;;;;;;;;;;19.00;61.80;;;;;;5001441;28;19980;-49
2021/10/09 02:03:05;;;;;;;;;;;19.00;61.80;;;;;;5003337;28;19925;-49
2021/10/09 02:05:31;;;;;;;;;;;19.00;61.80;;;;;;5000073;28;19963;-52
2021/10/09 02:07:56;;;;;;;;;;;19.00;61.80;;;;;;5002955;28;19960;-53
2021/10/09 02:10:22;;;;;;;;;;;19.00;61.80;;;;;;5000026;28;19917;-53
2021/10/09 02:12:48;;;;;;;;;;;19.00;61.70;;;;;;5003220;28;20070;-53
2021/10/09 02:15:19;;;;;;;;;;;19.00;61.70;;;;;;4998659;28;19918;-51
2021/10/09 02:18:06;;;;;;;;;;;19.00;61.60;;;;;;5003041;28;20341;-54
2021/10/09 02:26:00;;;;;;;;;;;18.90;61.50;;;;;;4999447;28;20032;-52
2021/10/09 02:28:25;;;;;;;;;;;18.90;61.50;;;;;;5002956;28;19917;-55
2021/10/09 02:30:51;;;;;;;;;;;19.00;61.50;;;;;;4999992;28;19917;-51
2021/10/09 02:33:17;;;;;;;;;;;19.00;61.50;;;;;;4998280;28;20370;-51
2021/10/09 02:35:42;;;;;;;;;;;18.90;61.40;;;;;;4999160;28;19926;-50
2021/10/09 02:38:08;;;;;;;;;;;18.90;61.40;;;;;;4999060;28;19925;-52
2021/10/09 02:40:34;;;;;;;;;;;19.00;61.40;;;;;;4995621;28;19971;-52
2021/10/09 02:43:00;;;;;;;;;;;19.00;61.40;;;;;;5003546;28;19924;-52
2021/10/09 02:45:25;;;;;;;;;;;18.90;61.30;;;;;;5001052;28;19960;-55
2021/10/09 02:47:51;;;;;;;;;;;19.00;61.30;;;;;;5003044;28;19960;-55
2021/10/09 02:50:17;;;;;;;;;;;19.00;61.30;;;;;;4999277;28;19925;-58
2021/10/09 02:52:43;;;;;;;;;;;18.90;61.20;;;;;;5001635;28;19961;-56
2021/10/09 02:55:09;;;;;;;;;;;18.90;61.30;;;;;;5000005;28;25447;-49
2021/10/09 02:57:35;;;;;;;;;;;18.90;61.10;;;;;;5001179;28;19925;-52
2021/10/09 03:00:01;;;;;;;;;;;18.90;61.10;;;;;;4999323;28;19945;-54
2021/10/09 03:02:26;;;;;;;;;;;18.90;61.10;;;;;;5003191;28;19961;-49
2021/10/09 03:04:52;;;;;;;;;;;18.90;61.00;;;;;;4999982;28;19924;-50
2021/10/09 03:07:17;;;;;;;;;;;18.90;61.00;;;;;;5003173;28;19917;-57
2021/10/09 03:09:43;;;;;;;;;;;18.90;61.00;;;;;;5000263;28;19925;-48
2021/10/09 03:12:08;;;;;;;;;;;18.90;61.00;;;;;;5002857;28;20346;-50
2021/10/09 03:14:34;;;;;;;;;;;18.90;61.00;;;;;;5023754;28;19925;-58
2021/10/09 03:16:59;;;;;;;;;;;18.90;60.90;;;;;;4997493;28;19929;-50
2021/10/09 03:19:24;;;;;;;;;;;18.90;60.90;;;;;;4982804;28;19918;-52
2021/10/09 03:21:50;;;;;;;;;;;18.90;60.80;;;;;;4985719;28;19925;-52
2021/10/09 03:24:15;;;;;;;;;;;18.90;60.90;;;;;;4983935;28;19921;-52
2021/10/09 03:26:41;;;;;;;;;;;18.90;60.80;;;;;;4989220;28;19944;-51
2021/10/09 03:29:06;;;;;;;;;;;18.90;60.90;;;;;;4989665;28;19922;-53
2021/10/09 03:31:32;;;;;;;;;;;18.90;60.80;;;;;;4999367;28;19944;-48
2021/10/09 03:33:57;;;;;;;;;;;18.90;60.80;;;;;;5001923;28;19967;-52
2021/10/09 03:36:22;;;;;;;;;;;18.80;60.70;;;;;;4995171;28;20375;-55
2021/10/09 03:38:48;;;;;;;;;;;18.90;60.80;;;;;;5002432;28;19921;-53
2021/10/09 03:41:15;;;;;;;;;;;18.80;60.70;;;;;;4997324;28;19928;-57
2021/10/09 03:43:43;;;;;;;;;;;18.90;60.70;;;;;;4984380;28;20345;-55
2021/10/09 03:53:55;;;;;;;;;;;18.80;60.50;;;;;;5002358;28;19924;-50
2021/10/09 03:56:20;;;;;;;;;;;18.90;60.60;;;;;;4997814;28;19925;-53
2021/10/09 03:58:46;;;;;;;;;;;18.80;60.50;;;;;;5002270;28;20003;-55
2021/10/09 04:01:11;;;;;;;;;;;18.80;60.50;;;;;;4997444;28;20570;-50
2021/10/09 04:03:37;;;;;;;;;;;18.80;60.50;;;;;;5001720;28;19975;-57
2021/10/09 04:06:02;;;;;;;;;;;18.80;60.40;;;;;;4998199;28;19976;-54
2021/10/09 04:08:28;;;;;;;;;;;18.80;60.40;;;;;;5036240;23;19925;-56
2021/10/09 04:10:53;;;;;;;;;;;18.80;60.40;;;;;;5040034;28;20010;-58
2021/10/09 04:13:18;;;;;;;;;;;18.80;60.40;;;;;;5042095;28;19924;-59
2021/10/09 04:15:44;;;;;;;;;;;18.80;60.40;;;;;;5024850;28;19917;-55
2021/10/09 04:18:09;;;;;;;;;;;18.80;60.40;;;;;;5036373;28;19936;-59
2021/10/09 04:20:36;;;;;;;;;;;18.80;60.40;;;;;;5045004;28;19924;-57
2021/10/09 04:23:01;;;;;;;;;;;18.80;60.30;;;;;;5038726;28;19936;-58
2021/10/09 04:25:27;;;;;;;;;;;18.80;60.30;;;;;;5041381;28;20219;-57
2021/10/09 04:27:52;;;;;;;;;;;18.80;60.20;;;;;;5042305;28;19921;-57
2021/10/09 04:30:18;;;;;;;;;;;18.80;60.20;;;;;;5025869;28;19950;-59
2021/10/09 04:32:43;;;;;;;;;;;18.80;60.20;;;;;;5047850;28;19917;-59
2021/10/09 04:35:09;;;;;;;;;;;18.80;60.20;;;;;;5030663;28;19916;-59
2021/10/09 04:37:34;;;;;;;;;;;18.80;60.20;;;;;;5046506;28;19917;-57
2021/10/09 04:39:59;;;;;;;;;;;18.70;60.10;;;;;;5034796;28;19917;-58
2021/10/09 04:42:25;;;;;;;;;;;18.70;60.10;;;;;;5052872;28;20381;-59
2021/10/09 04:44:50;;;;;;;;;;;18.80;60.10;;;;;;5046376;28;19980;-59
2021/10/09 04:47:16;;;;;;;;;;;18.80;60.00;;;;;;5044757;28;19959;-58
2021/10/09 04:49:41;;;;;;;;;;;18.70;60.00;;;;;;5046506;28;19921;-55
2021/10/09 04:52:07;;;;;;;;;;;18.80;60.00;;;;;;5051724;28;19918;-55
2021/10/09 04:54:32;;;;;;;;;;;18.80;59.90;;;;;;5048557;28;19967;-58
2021/10/09 04:56:57;;;;;;;;;;;18.80;60.00;;;;;;5033374;28;19921;-57
2021/10/09 04:59:23;;;;;;;;;;;18.70;59.90;;;;;;5056437;28;19924;-56
2021/10/09 05:01:48;;;;;;;;;;;18.70;59.80;;;;;;5049545;28;19925;-59
2021/10/09 05:04:14;;;;;;;;;;;18.70;59.80;;;;;;5048196;28;19932;-57
2021/10/09 05:06:39;;;;;;;;;;;18.70;59.80;;;;;;5041781;28;19960;-55
2021/10/09 05:09:07;;;;;;;;;;;18.70;59.70;;;;;;5027618;28;19922;-59
2021/10/09 05:11:32;;;;;;;;;;;18.70;59.80;;;;;;5044649;28;19917;-56
2021/10/09 05:13:58;;;;;;;;;;;18.70;59.80;;;;;;5049800;28;19940;-56
2021/10/09 05:16:23;;;;;;;;;;;18.70;59.70;;;;;;5034186;28;19924;-58
2021/10/09 05:18:49;;;;;;;;;;;18.70;59.70;;;;;;5038122;28;19917;-55
2021/10/09 05:21:14;;;;;;;;;;;18.70;59.70;;;;;;5035858;28;20492;-57
2021/10/09 05:23:40;;;;;;;;;;;18.70;60.20;;;;;;5043338;28;19929;-57
2021/10/09 05:26:06;;;;;;;;;;;18.70;59.60;;;;;;5031886;28;20270;-59
2021/10/09 05:31:08;;;;;;;;;;;18.70;59.60;;;;;;5049062;28;19921;-59
2021/10/09 05:33:37;;;;;;;;;;;18.70;59.70;;;;;;5026356;28;19951;-58
2021/10/09 05:36:03;;;;;;;;;;;18.70;59.60;;;;;;5043776;28;19947;-57
2021/10/09 05:38:28;;;;;;;;;;;18.70;59.40;;;;;;5030930;28;19921;-54
2021/10/09 05:40:55;;;;;;;;;;;18.70;59.50;;;;;;5046969;28;20654;-59
2021/10/09 05:43:21;;;;;;;;;;;18.70;59.40;;;;;;5058048;28;19920;-58
2021/10/09 05:45:46;;;;;;;;;;;18.70;59.40;;;;;;5046314;28;19955;-56
2021/10/09 05:48:12;;;;;;;;;;;18.70;59.50;;;;;;5043052;28;19927;-59
2021/10/09 05:54:03;;;;;;;;;;;18.60;59.30;;;;;;5037545;28;19939;-56
2021/10/09 05:56:02;;;;;;;;;;;18.60;59.30;;;;;;5035144;28;19917;-59
2021/10/09 06:31:24;;;;;;;;;;;18.60;59.20;;;;;;5037496;28;19923;-59
2021/10/09 06:49:59;;;;;;;;;;;18.60;59.20;;;;;;5051544;28;19920;-59
2021/10/09 07:00:37;;;;;;;;;;;18.50;59.90;;;;;;5043734;28;19971;-56
2021/10/09 07:03:02;;;;;;;;;;;18.50;60.20;;;;;;5044588;28;19925;-55
2021/10/09 07:05:28;;;;;;;;;;;18.40;60.30;;;;;;5046474;28;19917;-57
2021/10/09 07:08:02;;;;;;;;;;;18.40;60.40;;;;;;5038591;28;19921;-58
2021/10/09 07:10:27;;;;;;;;;;;18.50;60.50;;;;;;5044939;28;20293;-59
2021/10/09 07:12:53;;;;;;;;;;;18.50;60.60;;;;;;5043702;28;19918;-57
2021/10/09 07:15:18;;;;;;;;;;;18.50;60.60;;;;;;5034863;28;20278;-58
2021/10/09 07:17:45;;;;;;;;;;;18.50;60.70;;;;;;5039518;28;19970;-57
2021/10/09 07:20:10;;;;;;;;;;;18.50;60.90;;;;;;5056445;28;19936;-57
2021/10/09 07:22:36;;;;;;;;;;;18.50;61.00;;;;;;5037109;28;19926;-56
2021/10/09 07:25:01;;;;;;;;;;;18.50;60.90;;;;;;5061493;28;19912;-58
2021/10/09 07:27:27;;;;;;;;;;;18.50;60.80;;;;;;5054265;28;19967;-58
2021/10/09 07:29:52;;;;;;;;;;;18.50;60.80;;;;;;5041468;28;19917;-58
2021/10/09 07:32:17;;;;;;;;;;;18.50;60.80;;;;;;5035444;28;19966;-58
2021/10/09 07:34:43;;;;;;;;;;;18.50;60.70;;;;;;5055536;28;20425;-55
2021/10/09 07:37:08;;;;;;;;;;;18.50;60.70;;;;;;5030918;28;20050;-55
2021/10/09 07:39:34;;;;;;;;;;;18.50;60.70;;;;;;5022600;28;19921;-54
2021/10/09 07:41:59;;;;;;;;;;;18.40;60.70;;;;;;5043964;28;19913;-55
2021/10/09 07:44:25;;;;;;;;;;;18.40;60.70;;;;;;5049238;28;20397;-55
2021/10/09 07:46:50;;;;;;;;;;;18.50;60.70;;;;;;5039244;28;20595;-56
2021/10/09 07:49:16;;;;;;;;;;;18.40;60.60;;;;;;5041601;28;19917;-53
2021/10/09 07:51:41;;;;;;;;;;;18.50;60.70;;;;;;5044971;28;19924;-58
2021/10/09 07:54:07;;;;;;;;;;;18.40;60.60;;;;;;5030901;28;20516;-57
2021/10/09 07:56:32;;;;;;;;;;;18.50;60.60;;;;;;5044994;28;19920;-58
2021/10/09 07:58:58;;;;;;;;;;;18.40;60.60;;;;;;5042995;28;19917;-56
2021/10/09 08:01:23;;;;;;;;;;;18.40;60.50;;;;;;5042216;28;20011;-59
2021/10/09 08:03:49;;;;;;;;;;;18.50;60.80;;;;;;5043452;28;20368;-56
2021/10/09 08:06:14;;;;;;;;;;;18.40;60.70;;;;;;5041333;28;19917;-56
2021/10/09 08:08:40;;;;;;;;;;;18.40;60.70;;;;;;5038556;28;20665;-57
2021/10/09 08:11:05;;;;;;;;;;;18.40;60.60;;;;;;5045373;28;19917;-56
2021/10/09 08:13:31;;;;;;;;;;;18.40;60.60;;;;;;5054234;28;19975;-54
2021/10/09 08:15:57;;;;;;;;;;;18.40;60.60;;;;;;5036746;28;19922;-56
2021/10/09 08:18:22;;;;;;;;;;;18.40;60.60;;;;;;5050393;28;19921;-59
2021/10/09 08:20:51;;;;;;;;;;;18.40;60.50;;;;;;5054343;28;19916;-57
2021/10/09 08:23:21;;;;;;;;;;;18.40;60.50;;;;;;5050908;28;19933;-57
2021/10/09 08:26:09;;;;;;;;;;;18.40;60.50;;;;;;5047696;28;20008;-56
2021/10/09 08:36:50;;;;;;;;;;;18.40;60.50;;;;;;5061161;28;20008;-58
2021/10/09 08:39:16;;;;;;;;;;;18.40;60.50;;;;;;5049562;28;19913;-56
2021/10/09 08:41:42;;;;;;;;;;;18.40;60.50;;;;;;5032250;28;19972;-53
2021/10/09 08:44:07;;;;;;;;;;;18.40;60.50;;;;;;5040339;28;20370;-58
2021/10/09 08:46:33;;;;;;;;;;;18.40;60.50;;;;;;5055402;28;20035;-57
2021/10/09 08:48:58;;;;;;;;;;;18.40;60.50;;;;;;5041542;28;19913;-56
2021/10/09 08:51:24;;;;;;;;;;;18.40;60.60;;;;;;5045633;28;20358;-58
2021/10/09 08:53:52;;;;;;;;;;;18.30;60.50;;;;;;5037105;28;21290;-59
2021/10/09 08:56:36;;;;;;;;;;;18.30;60.60;;;;;;5052584;28;20470;-57
2021/10/09 08:59:12;;;;;;;;;;;18.30;60.70;;;;;;5055072;28;19920;-58
2021/10/09 09:02:00;;;;;;;;;;;18.40;60.70;;;;;;5053362;28;19927;-58
2021/10/09 09:04:58;;;;;;;;;;;18.30;60.70;;;;;;5050950;28;19924;-57
2021/10/09 09:40:04;;;;;;;;;;;18.30;62.30;;;;;;5040753;28;20424;-56
2021/10/09 09:42:30;;;;;;;;;;;18.30;62.40;;;;;;5043538;28;19921;-56
2021/10/09 09:44:56;;;;;;;;;;;18.30;62.60;;;;;;5057294;28;19913;-59
2021/10/09 09:47:34;;;;;;;;;;;18.20;62.80;;;;;;5036340;28;20373;-57
2021/10/09 09:50:00;;;;;;;;;;;18.20;62.80;;;;;;5045901;28;20008;-59
2021/10/09 09:52:26;;;;;;;;;;;18.20;62.70;;;;;;5047086;28;19970;-59
2021/10/09 09:54:51;;;;;;;;;;;18.20;62.60;;;;;;5030891;28;20377;-55
2021/10/09 09:57:17;;;;;;;;;;;18.20;62.70;;;;;;5025928;28;20015;-59
2021/10/09 09:59:42;;;;;;;;;;;18.20;62.60;;;;;;5034890;28;19982;-58
2021/10/09 10:02:07;;;;;;;;;;;18.20;62.50;;;;;;5047092;28;19925;-56
2021/10/09 10:04:33;;;;;;;;;;;18.10;62.30;;;;;;5046522;28;20297;-59
2021/10/09 10:07:00;;;;;;;;;;;18.20;62.10;;;;;;5044495;28;19920;-57
2021/10/09 10:09:28;;;;;;;;;;;18.20;62.00;;;;;;5051879;28;20322;-60
2021/10/09 10:11:55;;;;;;;;;;;18.20;61.80;;;;;;5034888;28;19917;-61
2021/10/09 10:14:21;;;;;;;;;;;18.20;61.70;;;;;;5035575;28;19917;-59
2021/10/09 10:16:46;;;;;;;;;;;18.20;61.60;;;;;;5051992;28;19923;-59
2021/10/09 10:19:11;;;;;;;;;;;18.20;61.50;;;;;;5025515;28;19931;-55
2021/10/09 10:21:37;;;;;;;;;;;18.20;61.40;;;;;;5053409;28;19924;-56
2021/10/09 10:24:02;;;;;;;;;;;18.20;61.20;;;;;;5045598;28;19932;-54
2021/10/09 10:26:30;;;;;;;;;;;18.20;61.10;;;;;;5026055;28;19920;-56
2021/10/09 10:28:56;;;;;;;;;;;18.20;61.60;;;;;;5049890;28;19973;-58
2021/10/09 10:31:21;;;;;;;;;;;18.20;60.90;;;;;;5043864;28;20325;-57
2021/10/09 10:33:56;;;;;;;;;;;18.10;60.70;;;;;;5032312;28;19917;-54
2021/10/09 10:36:36;;;;;;;;;;;18.20;60.60;;;;;;5040475;28;19924;-57
2021/10/09 10:39:02;;;;;;;;;;;18.20;60.50;;;;;;5029599;28;19917;-57
2021/10/09 10:41:41;;;;;;;;;;;18.20;60.40;;;;;;5047243;28;19920;-59
2021/10/09 10:44:08;;;;;;;;;;;18.20;60.40;;;;;;5051230;28;19916;-59
2021/10/09 10:46:39;;;;;;;;;;;18.20;60.30;;;;;;5038836;28;20004;-57
2021/10/09 10:49:35;;;;;;;;;;;18.20;60.20;;;;;;5031810;28;20659;-57
2021/10/09 10:54:38;;;;;;;;;;;18.20;60.00;;;;;;5046620;28;19917;-59
2021/10/09 10:57:06;;;;;;;;;;;18.20;60.00;;;;;;5044261;28;20386;-58
2021/10/09 10:59:32;;;;;;;;;;;18.20;59.90;;;;;;5040429;28;20439;-58
2021/10/09 11:02:06;;;;;;;;;;;18.20;60.00;;;;;;5052328;28;19920;-58
2021/10/09 11:04:35;;;;;;;;;;;18.20;59.90;;;;;;5039211;28;19932;-56
2021/10/09 11:07:01;;;;;;;;;;;18.20;59.80;;;;;;5040756;28;19970;-56
2021/10/09 11:09:27;;;;;;;;;;;18.20;59.60;;;;;;5051500;28;19970;-57
2021/10/09 11:11:52;;;;;;;;;;;18.20;59.40;;;;;;5024866;28;19925;-58
2021/10/09 11:14:21;;;;;;;;;;;18.20;59.20;;;;;;5044142;28;19917;-58
2021/10/09 11:16:47;;;;;;;;;;;18.20;59.10;;;;;;5044842;28;20378;-55
2021/10/09 11:19:12;;;;;;;;;;;18.20;58.90;;;;;;5025247;28;19935;-57
2021/10/09 11:21:53;;;;;;;;;;;18.20;59.30;;;;;;5042780;28;19916;-59
2021/10/09 11:24:18;;;;;;;;;;;18.20;58.70;;;;;;5008163;28;19975;-59
2021/10/09 11:26:53;;;;;;;;;;;18.20;58.70;;;;;;5050671;28;19924;-57
2021/10/09 11:29:18;;;;;;;;;;;18.20;58.90;;;;;;5045229;28;19923;-57
2021/10/09 11:31:44;;;;;;;;;;;18.20;59.60;;;;;;5044081;28;19916;-56
2021/10/09 11:34:09;;;;;;;;;;;18.30;60.30;;;;;;5044694;28;19916;-55
2021/10/09 11:36:38;;;;;;;;;;;18.20;61.00;;;;;;5050430;28;19971;-58
2021/10/09 11:39:11;;;;;;;;;;;18.30;61.90;;;;;;5008610;28;20322;-58
2021/10/09 11:41:36;;;;;;;;;;;18.30;62.70;;;;;;5044954;28;19958;-56
2021/10/09 11:44:07;;;;;;;;;;;18.30;63.40;;;;;;5041265;28;19955;-58
2021/10/09 11:55:17;;;;;;;;;;;18.30;66.00;;;;;;5033824;28;19959;-54
2021/10/09 11:57:42;;;;;;;;;;;18.30;65.80;;;;;;5038698;28;19924;-58
2021/10/09 12:00:28;;;;;;;;;;;18.30;65.70;;;;;;5044967;28;19986;-58
2021/10/09 12:02:54;;;;;;;;;;;18.30;65.40;;;;;;5036278;28;20337;-58
2021/10/09 12:05:20;;;;;;;;;;;18.30;65.00;;;;;;5037863;28;19955;-55
2021/10/09 12:08:03;;;;;;;;;;;18.30;64.60;;;;;;5047306;28;19917;-53
2021/10/09 12:10:29;;;;;;;;;;;18.30;64.20;;;;;;5043320;28;19917;-57
2021/10/09 12:13:03;;;;;;;;;;;18.30;63.90;;;;;;5019232;28;19917;-56
2021/10/09 12:15:29;;;;;;;;;;;18.30;63.60;;;;;;5039733;28;19959;-57
2021/10/09 12:17:58;;;;;;;;;;;18.30;63.30;;;;;;5047106;28;19956;-60
2021/10/09 12:20:25;;;;;;;;;;;18.30;63.20;;;;;;5045008;28;19935;-57
2021/10/09 12:22:55;;;;;;;;;;;18.30;62.90;;;;;;5045383;28;19925;-59
2021/10/09 12:25:26;;;;;;;;;;;18.30;62.70;;;;;;5016487;28;20019;-59
2021/10/09 12:28:02;;;;;;;;;;;18.30;62.50;;;;;;5033740;28;19925;-57
2021/10/09 12:30:34;;;;;;;;;;;18.30;62.20;;;;;;5038709;28;19916;-54
2021/10/09 12:32:59;;;;;;;;;;;18.30;62.10;;;;;;5042964;28;19936;-59
2021/10/09 12:35:33;;;;;;;;;;;18.30;62.10;;;;;;5038575;28;19917;-57
2021/10/09 12:38:05;;;;;;;;;;;18.30;62.20;;;;;;5042588;28;19916;-59
2021/10/09 12:40:39;;;;;;;;;;;18.30;62.50;;;;;;5043809;28;19917;-58
2021/10/09 12:43:07;;;;;;;;;;;18.30;61.70;;;;;;5035918;28;20328;-59
2021/10/09 12:45:32;;;;;;;;;;;18.30;61.20;;;;;;5046392;28;20278;-58
2021/10/09 12:47:58;;;;;;;;;;;18.30;60.80;;;;;;5042454;28;19924;-59
2021/10/09 12:50:27;;;;;;;;;;;18.30;60.50;;;;;;5036298;28;20032;-58
2021/10/09 12:52:56;;;;;;;;;;;18.30;59.70;;;;;;5023102;28;19917;-58
2021/10/09 12:55:23;;;;;;;;;;;18.30;59.60;;;;;;5043014;28;19948;-58
2021/10/09 12:57:52;;;;;;;;;;;18.20;59.10;;;;;;5044834;28;19917;-58
2021/10/09 13:00:17;;;;;;;;;;;18.30;59.00;;;;;;5042631;28;19947;-55
2021/10/09 13:02:43;;;;;;;;;;;18.30;58.50;;;;;;5042853;28;20340;-59
2021/10/09 13:05:08;;;;;;;;;;;18.30;58.70;;;;;;5040056;28;19917;-56
2021/10/09 13:07:34;;;;;;;;;;;18.20;58.30;;;;;;5035800;28;19917;-59
2021/10/09 13:09:59;;;;;;;;;;;18.20;58.10;;;;;;5043827;28;19925;-59
2021/10/09 13:12:25;;;;;;;;;;;18.20;57.90;;;;;;5043801;28;19924;-58
2021/10/09 13:14:50;;;;;;;;;;;18.20;57.70;;;;;;5035931;28;19921;-59
2021/10/09 13:17:16;;;;;;;;;;;18.30;57.70;;;;;;5048207;28;20004;-58
2021/10/09 13:19:41;;;;;;;;;;;18.20;57.40;;;;;;5035565;28;19921;-59
2021/10/09 13:22:07;;;;;;;;;;;18.20;57.50;;;;;;5057650;28;20310;-58
2021/10/09 13:24:32;;;;;;;;;;;18.20;57.10;;;;;;5040603;28;19924;-57
2021/10/09 13:26:57;;;;;;;;;;;18.20;57.00;;;;;;5044890;28;19927;-59
2021/10/09 13:29:23;;;;;;;;;;;18.20;56.80;;;;;;5049921;28;20242;-53
2021/10/09 13:31:48;;;;;;;;;;;18.20;56.80;;;;;;5060090;28;19939;-58
2021/10/09 13:34:15;;;;;;;;;;;18.20;56.80;;;;;;5053887;28;19943;-59
2021/10/09 13:36:41;;;;;;;;;;;18.20;56.40;;;;;;5046712;28;19927;-58
2021/10/09 13:39:06;;;;;;;;;;;18.20;56.10;;;;;;5037772;28;19925;-59
2021/10/09 13:41:31;;;;;;;;;;;18.20;56.10;;;;;;5052770;28;20385;-56
2021/10/09 13:43:57;;;;;;;;;;;18.20;55.80;;;;;;5047730;28;19931;-59
2021/10/09 13:46:27;;;;;;;;;;;18.20;55.60;;;;;;5047259;28;19913;-60
2021/10/09 13:48:53;;;;;;;;;;;18.20;55.70;;;;;;5034280;28;19920;-54
2021/10/09 13:51:18;;;;;;;;;;;18.20;55.60;;;;;;5036547;28;19924;-56
2021/10/09 13:53:44;;;;;;;;;;;18.20;55.50;;;;;;5042259;28;20362;-57
2021/10/09 13:56:09;;;;;;;;;;;18.20;55.50;;;;;;5047272;28;19917;-57
2021/10/09 13:58:35;;;;;;;;;;;18.20;55.40;;;;;;5041749;28;19921;-56
2021/10/09 14:01:00;;;;;;;;;;;18.20;55.40;;;;;;5055556;28;19923;-55
2021/10/09 14:03:27;;;;;;;;;;;18.10;56.00;;;;;;5027515;28;20019;-55
2021/10/09 14:05:53;;;;;;;;;;;18.20;55.30;;;;;;5042249;28;20388;-57
2021/10/09 14:08:19;;;;;;;;;;;18.20;55.10;;;;;;5057476;28;19928;-56
2021/10/09 14:10:44;;;;;;;;;;;18.20;55.10;;;;;;5047726;28;20431;-56
2021/10/09 14:13:11;;;;;;;;;;;18.10;54.90;;;;;;5039444;28;19920;-58
2021/10/09 14:15:38;;;;;;;;;;;18.20;54.80;;;;;;5048686;28;19921;-59
2021/10/09 14:18:03;;;;;;;;;;;18.20;54.60;;;;;;5037748;28;20086;-58
2021/10/09 14:20:28;;;;;;;;;;;18.20;54.60;;;;;;5045013;28;20434;-56
2021/10/09 14:22:54;;;;;;;;;;;18.10;54.20;;;;;;5036267;28;19928;-59
2021/10/09 14:25:19;;;;;;;;;;;18.20;54.20;;;;;;5036062;28;20015;-56
2021/10/09 14:27:45;;;;;;;;;;;18.10;54.10;;;;;;5050314;28;19935;-57
2021/10/09 14:30:10;;;;;;;;;;;18.20;54.00;;;;;;5037921;28;19920;-59
2021/10/09 14:32:36;;;;;;;;;;;18.10;54.00;;;;;;5028168;28;20394;-59
2021/10/09 14:35:02;;;;;;;;;;;18.10;53.70;;;;;;5047651;28;20526;-55
2021/10/09 14:37:27;;;;;;;;;;;18.10;53.70;;;;;;5040271;28;20409;-58
2021/10/09 14:39:53;;;;;;;;;;;18.20;54.00;;;;;;5049702;28;19925;-59
2021/10/09 14:42:20;;;;;;;;;;;18.10;53.60;;;;;;5048843;28;20612;-59
2021/10/09 14:44:45;;;;;;;;;;;18.20;53.30;;;;;;5025915;28;20012;-55
2021/10/09 14:47:34;;;;;;;;;;;18.10;53.30;;;;;;5041377;28;20200;-56
2021/10/09 14:50:02;;;;;;;;;;;18.10;53.20;;;;;;5037135;28;20537;-59
2021/10/09 14:53:12;;;;;;;;;;;18.10;53.20;;;;;;5035843;28;19932;-58
2021/10/09 15:19:41;;;;;;;;;;;18.10;55.30;;;;;;5041730;28;19931;-60
2021/10/09 15:22:08;;;;;;;;;;;18.10;55.20;;;;;;5050795;28;19917;-54
2021/10/09 15:24:34;;;;;;;;;;;18.10;55.30;;;;;;5020898;28;19925;-58
2021/10/09 15:26:59;;;;;;;;;;;18.10;55.40;;;;;;5041184;28;20392;-58
2021/10/09 15:29:24;;;;;;;;;;;18.10;55.30;;;;;;5041885;28;19994;-56
2021/10/09 15:31:50;;;;;;;;;;;18.10;55.40;;;;;;5044895;28;19931;-57
2021/10/09 15:34:16;;;;;;;;;;;18.10;55.50;;;;;;5044602;28;19931;-58
2021/10/09 15:36:42;;;;;;;;;;;18.10;55.60;;;;;;5044604;28;20383;-57
2021/10/09 15:39:07;;;;;;;;;;;18.10;55.70;;;;;;5036592;28;19971;-56
2021/10/09 15:41:33;;;;;;;;;;;18.10;55.70;;;;;;5040946;28;20313;-55
2021/10/09 15:43:58;;;;;;;;;;;18.10;55.80;;;;;;5039371;28;19944;-59
2021/10/09 15:46:24;;;;;;;;;;;18.10;55.80;;;;;;5037755;28;19921;-58
2021/10/09 15:48:49;;;;;;;;;;;18.10;55.90;;;;;;5037405;28;19920;-56
2021/10/09 15:51:15;;;;;;;;;;;18.10;56.20;;;;;;5036631;28;20324;-58
2021/10/09 15:53:40;;;;;;;;;;;18.10;56.30;;;;;;5043524;28;19940;-59
2021/10/09 15:56:05;;;;;;;;;;;18.10;56.40;;;;;;5051926;28;19939;-59
2021/10/09 15:58:32;;;;;;;;;;;18.10;56.50;;;;;;5041130;28;19923;-59
2021/10/09 16:00:57;;;;;;;;;;;18.10;56.70;;;;;;5047271;28;19921;-60
2021/10/09 16:03:23;;;;;;;;;;;18.10;56.90;;;;;;5027126;28;19974;-56
2021/10/09 16:05:48;;;;;;;;;;;18.20;56.90;;;;;;5038501;28;19917;-56
2021/10/09 16:08:14;;;;;;;;;;;18.10;56.70;;;;;;5035553;23;19929;-56
2021/10/09 16:10:40;;;;;;;;;;;18.10;56.50;;;;;;5002689;28;19918;-54
2021/10/09 16:13:07;;;;;;;;;;;18.20;56.50;;;;;;5010232;28;20008;-59
2021/10/09 16:15:34;;;;;;;;;;;18.20;56.50;;;;;;5005096;28;19917;-57
2021/10/09 16:17:59;;;;;;;;;;;18.20;56.50;;;;;;4986232;28;20290;-56
2021/10/09 16:20:25;;;;;;;;;;;18.20;56.40;;;;;;5001577;28;19922;-57
2021/10/09 16:22:50;;;;;;;;;;;18.20;56.30;;;;;;5000505;28;20013;-59
2021/10/09 16:25:16;;;;;;;;;;;18.20;56.70;;;;;;5012194;28;20913;-55
2021/10/09 16:27:41;;;;;;;;;;;18.10;56.70;;;;;;5006809;28;19924;-54
2021/10/09 16:30:07;;;;;;;;;;;18.10;56.80;;;;;;5000389;28;19918;-56
2021/10/09 16:32:32;;;;;;;;;;;18.20;57.00;;;;;;5005644;28;19920;-59
2021/10/09 16:34:57;;;;;;;;;;;18.20;57.00;;;;;;5015132;28;20002;-59
2021/10/09 16:37:23;;;;;;;;;;;18.20;57.10;;;;;;5013058;28;19925;-59
2021/10/09 16:39:48;;;;;;;;;;;18.20;57.20;;;;;;5017758;28;20263;-57
2021/10/09 16:42:14;;;;;;;;;;;18.20;57.20;;;;;;5006785;28;20438;-59
2021/10/09 16:44:39;;;;;;;;;;;18.20;57.10;;;;;;5003991;28;20213;-57
2021/10/09 16:47:05;;;;;;;;;;;18.20;57.20;;;;;;5001526;28;19948;-59